sensor_id;sensor_type;location;lat;lon;timestamp;P1;durP1;ratioP1;P2;durP2;ratioP2
72785;SDS011;60902;53.876;10.674;2023-04-24T16:47:06;4.85;;;2.30;;
72785;SDS011;60902;53.876;10.674;2023-04-24T16:47:19;4.95;;;2.20;;
72785;SDS011;60902;53.876;10.674;2023-04-24T16:47:30;5.22;;;2.38;;
72785;SDS011;60902;53.876;10.674;2023-04-24T16:47:41;4.95;;;2.33;;
72785;SDS011;60902;53.876;10.674;2023-04-24T16:47:52;4.88;;;2.30;;
72785;SDS011;60902;53.876;10.674;2023-04-24T16:48:03;4.50;;;2.20;;
72785;SDS011;60902;53.876;10.674;2023-04-24T16:48:14;4.63;;;2.38;;
72785;SDS011;60902;53.876;10.674;2023-04-24T16:48:26;4.50;;;2.38;;
72785;SDS011;60902;53.876;10.674;2023-04-24T16:48:38;4.63;;;2.22;;
72785;SDS011;60902;53.876;10.674;2023-04-24T16:48:49;4.60;;;2.00;;
72785;SDS011;60902;53.876;10.674;2023-04-24T16:48:59;4.55;;;2.00;;
72785;SDS011;60902;53.876;10.674;2023-04-24T16:49:10;4.53;;;2.10;;
72785;SDS011;60902;53.876;10.674;2023-04-24T16:49:21;4.60;;;2.20;;
72785;SDS011;60902;53.876;10.674;2023-04-24T16:49:32;4.68;;;2.05;;
72785;SDS011;60902;53.876;10.674;2023-04-24T16:49:43;4.70;;;2.03;;
72785;SDS011;60902;53.876;10.674;2023-04-24T16:49:54;5.10;;;2.10;;
72785;SDS011;60902;53.876;10.674;2023-04-24T16:50:06;5.50;;;2.30;;
72785;SDS011;60902;53.876;10.674;2023-04-24T16:50:18;5.95;;;2.28;;
72785;SDS011;60902;53.876;10.674;2023-04-24T16:50:30;5.50;;;2.20;;
72785;SDS011;60902;53.876;10.674;2023-04-24T16:50:41;5.30;;;2.22;;
72785;SDS011;60902;53.876;10.674;2023-04-24T16:50:52;4.90;;;2.15;;
72785;SDS011;60902;53.876;10.674;2023-04-24T16:51:03;4.85;;;2.13;;
72785;SDS011;60902;53.876;10.674;2023-04-24T16:51:15;4.53;;;2.30;;
72785;SDS011;60902;53.876;10.674;2023-04-24T16:51:26;4.70;;;2.40;;
72785;SDS011;60902;53.876;10.674;2023-04-24T16:51:38;4.60;;;2.30;;
72785;SDS011;60902;53.876;10.674;2023-04-24T16:51:48;4.50;;;2.30;;
72785;SDS011;60902;53.876;10.674;2023-04-24T16:52:01;4.78;;;2.65;;
72785;SDS011;60902;53.876;10.674;2023-04-24T16:52:11;5.00;;;2.70;;
72785;SDS011;60902;53.876;10.674;2023-04-24T16:52:24;5.32;;;2.50;;
72785;SDS011;60902;53.876;10.674;2023-04-24T16:52:34;4.93;;;1.92;;
72785;SDS011;60902;53.876;10.674;2023-04-24T16:52:45;4.70;;;1.90;;
72785;SDS011;60902;53.876;10.674;2023-04-24T16:52:56;4.17;;;2.00;;
72785;SDS011;60902;53.876;10.674;2023-04-24T16:53:07;4.25;;;2.08;;
72785;SDS011;60902;53.876;10.674;2023-04-24T16:53:18;4.47;;;2.28;;
72785;SDS011;60902;53.876;10.674;2023-04-24T16:53:29;4.70;;;2.33;;
72785;SDS011;60902;53.876;10.674;2023-04-24T16:53:41;5.07;;;2.40;;
72785;SDS011;60902;53.876;10.674;2023-04-24T16:53:51;5.22;;;2.30;;
72785;SDS011;60902;53.876;10.674;2023-04-24T16:54:02;4.67;;;2.20;;
72785;SDS011;60902;53.876;10.674;2023-04-24T16:54:14;4.68;;;2.00;;
72785;SDS011;60902;53.876;10.674;2023-04-24T16:54:25;4.63;;;2.22;;
72785;SDS011;60902;53.876;10.674;2023-04-24T16:54:36;4.80;;;2.47;;
72785;SDS011;60902;53.876;10.674;2023-04-24T16:54:48;4.43;;;2.28;;
72785;SDS011;60902;53.876;10.674;2023-04-24T16:55:00;4.57;;;1.88;;
72785;SDS011;60902;53.876;10.674;2023-04-24T16:55:11;5.03;;;2.05;;
72785;SDS011;60902;53.876;10.674;2023-04-24T16:55:22;5.03;;;2.27;;
72785;SDS011;60902;53.876;10.674;2023-04-24T16:55:34;4.43;;;2.35;;
72785;SDS011;60902;53.876;10.674;2023-04-24T16:55:45;4.38;;;2.25;;
72785;SDS011;60902;53.876;10.674;2023-04-24T16:55:57;4.63;;;2.17;;
72785;SDS011;60902;53.876;10.674;2023-04-24T16:56:08;4.50;;;2.00;;
72785;SDS011;60902;53.876;10.674;2023-04-24T16:56:19;4.65;;;2.03;;
72785;SDS011;60902;53.876;10.674;2023-04-24T16:56:29;4.75;;;1.92;;
72785;SDS011;60902;53.876;10.674;2023-04-24T16:56:40;5.10;;;1.92;;
72785;SDS011;60902;53.876;10.674;2023-04-24T16:56:51;4.63;;;1.70;;
72785;SDS011;60902;53.876;10.674;2023-04-24T16:57:03;4.00;;;1.63;;
72785;SDS011;60902;53.876;10.674;2023-04-24T16:57:14;4.25;;;1.80;;
72785;SDS011;60902;53.876;10.674;2023-04-24T16:57:26;4.40;;;1.95;;
72785;SDS011;60902;53.876;10.674;2023-04-24T16:57:37;5.22;;;2.00;;
72785;SDS011;60902;53.876;10.674;2023-04-24T16:57:49;5.25;;;2.00;;
72785;SDS011;60902;53.876;10.674;2023-04-24T16:58:00;4.97;;;2.10;;
72785;SDS011;60902;53.876;10.674;2023-04-24T16:58:11;4.97;;;2.13;;
72785;SDS011;60902;53.876;10.674;2023-04-24T16:58:23;4.88;;;2.13;;
72785;SDS011;60902;53.876;10.674;2023-04-24T16:58:35;4.65;;;2.05;;
72785;SDS011;60902;53.876;10.674;2023-04-24T16:58:45;4.57;;;2.10;;
72785;SDS011;60902;53.876;10.674;2023-04-24T16:58:56;4.30;;;2.00;;
72785;SDS011;60902;53.876;10.674;2023-04-24T16:59:07;4.25;;;1.95;;
72785;SDS011;60902;53.876;10.674;2023-04-24T16:59:19;4.25;;;1.95;;
72785;SDS011;60902;53.876;10.674;2023-04-24T16:59:30;4.70;;;2.25;;
72785;SDS011;60902;53.876;10.674;2023-04-24T16:59:43;4.90;;;2.50;;
72785;SDS011;60902;53.876;10.674;2023-04-24T16:59:53;4.77;;;2.47;;
72785;SDS011;60902;53.876;10.674;2023-04-24T17:00:05;4.63;;;2.28;;
72785;SDS011;60902;53.876;10.674;2023-04-24T17:00:18;4.68;;;2.20;;
72785;SDS011;60902;53.876;10.674;2023-04-24T17:00:29;4.50;;;2.10;;
72785;SDS011;60902;53.876;10.674;2023-04-24T17:00:40;4.72;;;2.08;;
72785;SDS011;60902;53.876;10.674;2023-04-24T17:00:52;4.53;;;1.95;;
72785;SDS011;60902;53.876;10.674;2023-04-24T17:01:03;5.10;;;2.10;;
72785;SDS011;60902;53.876;10.674;2023-04-24T17:01:14;4.95;;;2.00;;
72785;SDS011;60902;53.876;10.674;2023-04-24T17:01:25;5.10;;;2.07;;
72785;SDS011;60902;53.876;10.674;2023-04-24T17:01:36;4.37;;;2.20;;
72785;SDS011;60902;53.876;10.674;2023-04-24T17:01:47;4.40;;;2.22;;
72785;SDS011;60902;53.876;10.674;2023-04-24T17:01:58;4.65;;;2.33;;
72785;SDS011;60902;53.876;10.674;2023-04-24T17:02:11;5.20;;;2.10;;
72785;SDS011;60902;53.876;10.674;2023-04-24T17:02:23;5.30;;;2.27;;
72785;SDS011;60902;53.876;10.674;2023-04-24T17:02:34;5.47;;;2.40;;
72785;SDS011;60902;53.876;10.674;2023-04-24T17:02:45;5.45;;;2.47;;
72785;SDS011;60902;53.876;10.674;2023-04-24T17:02:57;5.15;;;2.30;;
72785;SDS011;60902;53.876;10.674;2023-04-24T17:03:08;4.63;;;2.30;;
72785;SDS011;60902;53.876;10.674;2023-04-24T17:03:20;4.15;;;2.20;;
72785;SDS011;60902;53.876;10.674;2023-04-24T17:03:31;4.28;;;2.10;;
72785;SDS011;60902;53.876;10.674;2023-04-24T17:03:42;4.20;;;1.90;;
72785;SDS011;60902;53.876;10.674;2023-04-24T17:03:53;4.38;;;1.98;;
72785;SDS011;60902;53.876;10.674;2023-04-24T17:04:04;4.40;;;2.00;;
72785;SDS011;60902;53.876;10.674;2023-04-24T17:04:15;4.60;;;2.10;;
72785;SDS011;60902;53.876;10.674;2023-04-24T17:04:26;4.53;;;2.10;;
72785;SDS011;60902;53.876;10.674;2023-04-24T17:04:37;4.55;;;2.10;;
72785;SDS011;60902;53.876;10.674;2023-04-24T17:04:49;4.55;;;2.15;;
72785;SDS011;60902;53.876;10.674;2023-04-24T17:05:00;4.30;;;2.00;;
72785;SDS011;60902;53.876;10.674;2023-04-24T17:05:11;4.60;;;2.20;;
72785;SDS011;60902;53.876;10.674;2023-04-24T17:05:22;5.03;;;2.30;;
72785;SDS011;60902;53.876;10.674;2023-04-24T17:05:33;6.03;;;2.40;;
72785;SDS011;60902;53.876;10.674;2023-04-24T17:05:44;5.68;;;2.20;;
72785;SDS011;60902;53.876;10.674;2023-04-24T17:05:56;5.63;;;2.25;;
72785;SDS011;60902;53.876;10.674;2023-04-24T17:06:08;5.00;;;2.20;;
72785;SDS011;60902;53.876;10.674;2023-04-24T17:06:19;5.22;;;2.35;;
72785;SDS011;60902;53.876;10.674;2023-04-24T17:06:30;4.72;;;2.30;;
72785;SDS011;60902;53.876;10.674;2023-04-24T17:06:42;4.70;;;2.22;;
72785;SDS011;60902;53.876;10.674;2023-04-24T17:06:53;4.63;;;2.28;;
72785;SDS011;60902;53.876;10.674;2023-04-24T17:07:05;4.97;;;2.15;;
72785;SDS011;60902;53.876;10.674;2023-04-24T17:07:16;5.07;;;2.30;;
72785;SDS011;60902;53.876;10.674;2023-04-24T17:07:27;4.72;;;2.10;;
72785;SDS011;60902;53.876;10.674;2023-04-24T17:07:39;4.40;;;1.98;;
72785;SDS011;60902;53.876;10.674;2023-04-24T17:07:50;4.38;;;1.90;;
72785;SDS011;60902;53.876;10.674;2023-04-24T17:08:01;4.53;;;2.05;;
72785;SDS011;60902;53.876;10.674;2023-04-24T17:08:12;4.88;;;2.40;;
72785;SDS011;60902;53.876;10.674;2023-04-24T17:08:24;5.00;;;2.42;;
72785;SDS011;60902;53.876;10.674;2023-04-24T17:08:35;4.68;;;2.30;;
72785;SDS011;60902;53.876;10.674;2023-04-24T17:08:46;4.57;;;2.15;;
72785;SDS011;60902;53.876;10.674;2023-04-24T17:08:57;4.50;;;2.13;;
72785;SDS011;60902;53.876;10.674;2023-04-24T17:09:09;4.22;;;2.10;;
72785;SDS011;60902;53.876;10.674;2023-04-24T17:09:22;4.07;;;1.90;;
72785;SDS011;60902;53.876;10.674;2023-04-24T17:09:34;4.38;;;1.88;;
72785;SDS011;60902;53.876;10.674;2023-04-24T17:09:45;4.70;;;2.00;;
72785;SDS011;60902;53.876;10.674;2023-04-24T17:09:56;4.93;;;2.22;;
72785;SDS011;60902;53.876;10.674;2023-04-24T17:10:07;4.70;;;2.30;;
72785;SDS011;60902;53.876;10.674;2023-04-24T17:10:18;4.88;;;2.45;;
72785;SDS011;60902;53.876;10.674;2023-04-24T17:10:29;4.80;;;2.20;;
72785;SDS011;60902;53.876;10.674;2023-04-24T17:10:40;4.90;;;2.13;;
72785;SDS011;60902;53.876;10.674;2023-04-24T17:10:52;4.65;;;2.15;;
72785;SDS011;60902;53.876;10.674;2023-04-24T17:11:03;4.70;;;2.27;;
72785;SDS011;60902;53.876;10.674;2023-04-24T17:11:14;4.82;;;2.30;;
72785;SDS011;60902;53.876;10.674;2023-04-24T17:11:25;4.80;;;2.30;;
72785;SDS011;60902;53.876;10.674;2023-04-24T17:11:36;4.75;;;2.40;;
72785;SDS011;60902;53.876;10.674;2023-04-24T17:11:47;4.60;;;2.33;;
72785;SDS011;60902;53.876;10.674;2023-04-24T17:11:59;5.25;;;2.45;;
72785;SDS011;60902;53.876;10.674;2023-04-24T17:12:11;5.35;;;2.20;;
72785;SDS011;60902;53.876;10.674;2023-04-24T17:12:22;4.97;;;2.22;;
72785;SDS011;60902;53.876;10.674;2023-04-24T17:12:34;4.43;;;2.13;;
72785;SDS011;60902;53.876;10.674;2023-04-24T17:12:45;4.55;;;2.17;;
72785;SDS011;60902;53.876;10.674;2023-04-24T17:12:56;4.35;;;2.10;;
72785;SDS011;60902;53.876;10.674;2023-04-24T17:13:08;4.43;;;2.05;;
72785;SDS011;60902;53.876;10.674;2023-04-24T17:13:19;4.30;;;1.90;;
72785;SDS011;60902;53.876;10.674;2023-04-24T17:13:33;4.45;;;2.10;;
72785;SDS011;60902;53.876;10.674;2023-04-24T17:13:44;4.70;;;2.20;;
72785;SDS011;60902;53.876;10.674;2023-04-24T17:13:55;4.78;;;2.20;;
72785;SDS011;60902;53.876;10.674;2023-04-24T17:14:08;5.00;;;2.35;;
72785;SDS011;60902;53.876;10.674;2023-04-24T17:14:20;5.53;;;2.40;;
72785;SDS011;60902;53.876;10.674;2023-04-24T17:14:33;5.25;;;2.35;;
72785;SDS011;60902;53.876;10.674;2023-04-24T17:14:44;5.10;;;2.33;;
72785;SDS011;60902;53.876;10.674;2023-04-24T17:14:55;4.88;;;2.33;;
72785;SDS011;60902;53.876;10.674;2023-04-24T17:15:06;5.07;;;2.30;;
72785;SDS011;60902;53.876;10.674;2023-04-24T17:15:17;5.38;;;2.47;;
72785;SDS011;60902;53.876;10.674;2023-04-24T17:15:29;5.00;;;2.35;;
72785;SDS011;60902;53.876;10.674;2023-04-24T17:15:40;4.72;;;2.40;;
72785;SDS011;60902;53.876;10.674;2023-04-24T17:15:51;4.70;;;2.20;;
72785;SDS011;60902;53.876;10.674;2023-04-24T17:16:02;4.85;;;2.28;;
72785;SDS011;60902;53.876;10.674;2023-04-24T17:16:13;5.05;;;2.30;;
72785;SDS011;60902;53.876;10.674;2023-04-24T17:16:24;5.40;;;2.25;;
72785;SDS011;60902;53.876;10.674;2023-04-24T17:16:36;5.45;;;2.30;;
72785;SDS011;60902;53.876;10.674;2023-04-24T17:16:49;4.78;;;2.25;;
72785;SDS011;60902;53.876;10.674;2023-04-24T17:17:00;4.78;;;2.33;;
72785;SDS011;60902;53.876;10.674;2023-04-24T17:17:12;4.50;;;2.20;;
72785;SDS011;60902;53.876;10.674;2023-04-24T17:17:24;4.65;;;2.17;;
72785;SDS011;60902;53.876;10.674;2023-04-24T17:17:34;4.60;;;2.13;;
72785;SDS011;60902;53.876;10.674;2023-04-24T17:17:45;4.50;;;2.00;;
72785;SDS011;60902;53.876;10.674;2023-04-24T17:17:56;4.47;;;2.00;;
72785;SDS011;60902;53.876;10.674;2023-04-24T17:18:07;4.60;;;2.25;;
72785;SDS011;60902;53.876;10.674;2023-04-24T17:18:19;4.57;;;2.40;;
72785;SDS011;60902;53.876;10.674;2023-04-24T17:18:31;4.55;;;2.40;;
72785;SDS011;60902;53.876;10.674;2023-04-24T17:18:42;4.63;;;2.20;;
72785;SDS011;60902;53.876;10.674;2023-04-24T17:18:53;4.78;;;2.30;;
72785;SDS011;60902;53.876;10.674;2023-04-24T17:19:04;4.78;;;2.38;;
72785;SDS011;60902;53.876;10.674;2023-04-24T17:19:16;4.68;;;2.40;;
72785;SDS011;60902;53.876;10.674;2023-04-24T17:19:27;4.63;;;2.40;;
72785;SDS011;60902;53.876;10.674;2023-04-24T17:19:38;4.63;;;2.35;;
72785;SDS011;60902;53.876;10.674;2023-04-24T17:19:50;4.70;;;2.50;;
72785;SDS011;60902;53.876;10.674;2023-04-24T17:20:01;4.78;;;2.50;;
72785;SDS011;60902;53.876;10.674;2023-04-24T17:20:12;4.63;;;2.37;;
72785;SDS011;60902;53.876;10.674;2023-04-24T17:20:23;5.03;;;2.35;;
72785;SDS011;60902;53.876;10.674;2023-04-24T17:20:34;5.47;;;2.67;;
72785;SDS011;60902;53.876;10.674;2023-04-24T17:20:45;5.60;;;2.85;;
72785;SDS011;60902;53.876;10.674;2023-04-24T17:20:57;5.00;;;2.80;;
72785;SDS011;60902;53.876;10.674;2023-04-24T17:21:08;4.78;;;2.50;;
72785;SDS011;60902;53.876;10.674;2023-04-24T17:21:18;4.85;;;2.50;;
72785;SDS011;60902;53.876;10.674;2023-04-24T17:21:29;4.80;;;2.50;;
72785;SDS011;60902;53.876;10.674;2023-04-24T17:21:40;5.60;;;2.70;;
72785;SDS011;60902;53.876;10.674;2023-04-24T17:21:51;5.38;;;2.60;;
72785;SDS011;60902;53.876;10.674;2023-04-24T17:22:02;5.50;;;2.50;;
72785;SDS011;60902;53.876;10.674;2023-04-24T17:22:14;4.90;;;2.40;;
72785;SDS011;60902;53.876;10.674;2023-04-24T17:22:25;5.00;;;2.30;;
72785;SDS011;60902;53.876;10.674;2023-04-24T17:22:35;5.43;;;2.60;;
72785;SDS011;60902;53.876;10.674;2023-04-24T17:22:48;5.45;;;2.83;;
72785;SDS011;60902;53.876;10.674;2023-04-24T17:22:59;5.43;;;2.90;;
72785;SDS011;60902;53.876;10.674;2023-04-24T17:23:10;5.07;;;2.80;;
72785;SDS011;60902;53.876;10.674;2023-04-24T17:23:21;5.00;;;2.72;;
72785;SDS011;60902;53.876;10.674;2023-04-24T17:23:32;5.03;;;2.60;;
72785;SDS011;60902;53.876;10.674;2023-04-24T17:23:43;4.97;;;2.50;;
72785;SDS011;60902;53.876;10.674;2023-04-24T17:23:54;5.20;;;2.55;;
72785;SDS011;60902;53.876;10.674;2023-04-24T17:24:05;5.50;;;2.50;;
72785;SDS011;60902;53.876;10.674;2023-04-24T17:24:16;5.57;;;2.45;;
72785;SDS011;60902;53.876;10.674;2023-04-24T17:24:27;5.57;;;2.50;;
72785;SDS011;60902;53.876;10.674;2023-04-24T17:24:39;4.97;;;2.42;;
72785;SDS011;60902;53.876;10.674;2023-04-24T17:24:50;4.70;;;2.40;;
72785;SDS011;60902;53.876;10.674;2023-04-24T17:25:03;4.60;;;2.50;;
72785;SDS011;60902;53.876;10.674;2023-04-24T17:25:14;4.72;;;2.47;;
72785;SDS011;60902;53.876;10.674;2023-04-24T17:25:26;5.00;;;2.50;;
72785;SDS011;60902;53.876;10.674;2023-04-24T17:25:37;5.20;;;2.45;;
72785;SDS011;60902;53.876;10.674;2023-04-24T17:25:49;5.07;;;2.47;;
72785;SDS011;60902;53.876;10.674;2023-04-24T17:26:00;4.93;;;2.60;;
72785;SDS011;60902;53.876;10.674;2023-04-24T17:26:11;5.10;;;2.90;;
72785;SDS011;60902;53.876;10.674;2023-04-24T17:26:22;5.00;;;2.80;;
72785;SDS011;60902;53.876;10.674;2023-04-24T17:26:33;4.93;;;2.70;;
72785;SDS011;60902;53.876;10.674;2023-04-24T17:26:44;4.90;;;2.70;;
72785;SDS011;60902;53.876;10.674;2023-04-24T17:26:55;4.75;;;2.60;;
72785;SDS011;60902;53.876;10.674;2023-04-24T17:27:07;5.00;;;2.70;;
72785;SDS011;60902;53.876;10.674;2023-04-24T17:27:19;5.65;;;2.67;;
72785;SDS011;60902;53.876;10.674;2023-04-24T17:27:30;6.20;;;2.95;;
72785;SDS011;60902;53.876;10.674;2023-04-24T17:27:42;6.28;;;2.92;;
72785;SDS011;60902;53.876;10.674;2023-04-24T17:27:53;5.90;;;2.83;;
72785;SDS011;60902;53.876;10.674;2023-04-24T17:28:06;5.50;;;2.72;;
72785;SDS011;60902;53.876;10.674;2023-04-24T17:28:26;5.60;;;2.92;;
72785;SDS011;60902;53.876;10.674;2023-04-24T17:28:39;5.80;;;2.83;;
72785;SDS011;60902;53.876;10.674;2023-04-24T17:28:50;5.90;;;2.70;;
72785;SDS011;60902;53.876;10.674;2023-04-24T17:29:03;5.90;;;2.83;;
72785;SDS011;60902;53.876;10.674;2023-04-24T17:29:14;5.80;;;2.90;;
72785;SDS011;60902;53.876;10.674;2023-04-24T17:29:25;5.07;;;2.67;;
72785;SDS011;60902;53.876;10.674;2023-04-24T17:29:36;5.03;;;2.50;;
72785;SDS011;60902;53.876;10.674;2023-04-24T17:29:47;5.00;;;2.50;;
72785;SDS011;60902;53.876;10.674;2023-04-24T17:30:00;5.03;;;2.60;;
72785;SDS011;60902;53.876;10.674;2023-04-24T17:30:12;5.50;;;2.67;;
72785;SDS011;60902;53.876;10.674;2023-04-24T17:30:26;5.15;;;2.38;;
72785;SDS011;60902;53.876;10.674;2023-04-24T17:30:37;4.90;;;2.58;;
72785;SDS011;60902;53.876;10.674;2023-04-24T17:30:48;5.00;;;2.78;;
72785;SDS011;60902;53.876;10.674;2023-04-24T17:30:59;5.05;;;2.83;;
72785;SDS011;60902;53.876;10.674;2023-04-24T17:31:11;4.97;;;2.55;;
72785;SDS011;60902;53.876;10.674;2023-04-24T17:31:22;5.40;;;2.53;;
72785;SDS011;60902;53.876;10.674;2023-04-24T17:31:34;5.65;;;2.72;;
72785;SDS011;60902;53.876;10.674;2023-04-24T17:31:46;5.90;;;2.88;;
72785;SDS011;60902;53.876;10.674;2023-04-24T17:31:58;5.55;;;2.88;;
72785;SDS011;60902;53.876;10.674;2023-04-24T17:32:09;5.55;;;2.88;;
72785;SDS011;60902;53.876;10.674;2023-04-24T17:32:21;6.10;;;3.05;;
72785;SDS011;60902;53.876;10.674;2023-04-24T17:32:33;6.22;;;2.95;;
72785;SDS011;60902;53.876;10.674;2023-04-24T17:32:44;5.97;;;2.90;;
72785;SDS011;60902;53.876;10.674;2023-04-24T17:32:55;5.20;;;2.55;;
72785;SDS011;60902;53.876;10.674;2023-04-24T17:33:07;5.00;;;2.50;;
72785;SDS011;60902;53.876;10.674;2023-04-24T17:33:18;4.90;;;2.55;;
72785;SDS011;60902;53.876;10.674;2023-04-24T17:33:29;6.03;;;2.83;;
72785;SDS011;60902;53.876;10.674;2023-04-24T17:33:40;6.05;;;2.80;;
72785;SDS011;60902;53.876;10.674;2023-04-24T17:33:52;6.43;;;2.88;;
72785;SDS011;60902;53.876;10.674;2023-04-24T17:34:03;5.60;;;2.80;;
72785;SDS011;60902;53.876;10.674;2023-04-24T17:34:14;5.35;;;2.70;;
72785;SDS011;60902;53.876;10.674;2023-04-24T17:34:25;5.40;;;2.80;;
72785;SDS011;60902;53.876;10.674;2023-04-24T17:34:36;5.40;;;2.80;;
72785;SDS011;60902;53.876;10.674;2023-04-24T17:34:47;5.20;;;2.72;;
72785;SDS011;60902;53.876;10.674;2023-04-24T17:34:58;5.15;;;2.58;;
72785;SDS011;60902;53.876;10.674;2023-04-24T17:35:11;5.38;;;2.78;;
72785;SDS011;60902;53.876;10.674;2023-04-24T17:35:21;5.30;;;2.80;;
72785;SDS011;60902;53.876;10.674;2023-04-24T17:35:33;5.53;;;2.97;;
72785;SDS011;60902;53.876;10.674;2023-04-24T17:35:43;5.37;;;2.93;;
72785;SDS011;60902;53.876;10.674;2023-04-24T17:35:54;5.80;;;3.03;;
72785;SDS011;60902;53.876;10.674;2023-04-24T17:36:07;5.88;;;3.15;;
72785;SDS011;60902;53.876;10.674;2023-04-24T17:36:18;5.53;;;3.00;;
72785;SDS011;60902;53.876;10.674;2023-04-24T17:36:29;5.60;;;2.92;;
72785;SDS011;60902;53.876;10.674;2023-04-24T17:36:41;6.28;;;2.88;;
72785;SDS011;60902;53.876;10.674;2023-04-24T17:36:52;6.82;;;3.00;;
72785;SDS011;60902;53.876;10.674;2023-04-24T17:37:03;6.70;;;3.00;;
72785;SDS011;60902;53.876;10.674;2023-04-24T17:37:16;5.70;;;3.00;;
72785;SDS011;60902;53.876;10.674;2023-04-24T17:37:28;5.70;;;2.95;;
72785;SDS011;60902;53.876;10.674;2023-04-24T17:37:40;5.50;;;2.80;;
72785;SDS011;60902;53.876;10.674;2023-04-24T17:37:51;5.43;;;2.70;;
72785;SDS011;60902;53.876;10.674;2023-04-24T17:38:01;5.65;;;2.85;;
72785;SDS011;60902;53.876;10.674;2023-04-24T17:38:12;5.82;;;2.80;;
72785;SDS011;60902;53.876;10.674;2023-04-24T17:38:24;5.75;;;2.70;;
72785;SDS011;60902;53.876;10.674;2023-04-24T17:38:35;6.03;;;2.88;;
72785;SDS011;60902;53.876;10.674;2023-04-24T17:38:46;5.57;;;2.90;;
72785;SDS011;60902;53.876;10.674;2023-04-24T17:38:57;5.75;;;2.97;;
72785;SDS011;60902;53.876;10.674;2023-04-24T17:39:08;5.57;;;2.80;;
72785;SDS011;60902;53.876;10.674;2023-04-24T17:39:19;5.53;;;3.00;;
72785;SDS011;60902;53.876;10.674;2023-04-24T17:39:31;5.80;;;3.20;;
72785;SDS011;60902;53.876;10.674;2023-04-24T17:39:42;5.55;;;3.05;;
72785;SDS011;60902;53.876;10.674;2023-04-24T17:39:53;5.50;;;2.97;;
72785;SDS011;60902;53.876;10.674;2023-04-24T17:40:05;5.57;;;3.05;;
72785;SDS011;60902;53.876;10.674;2023-04-24T17:40:17;5.55;;;3.00;;
72785;SDS011;60902;53.876;10.674;2023-04-24T17:40:28;5.22;;;2.78;;
72785;SDS011;60902;53.876;10.674;2023-04-24T17:40:39;5.45;;;2.70;;
72785;SDS011;60902;53.876;10.674;2023-04-24T17:40:51;5.38;;;2.75;;
72785;SDS011;60902;53.876;10.674;2023-04-24T17:41:02;5.80;;;3.03;;
72785;SDS011;60902;53.876;10.674;2023-04-24T17:41:13;5.93;;;3.00;;
72785;SDS011;60902;53.876;10.674;2023-04-24T17:41:25;6.18;;;3.25;;
72785;SDS011;60902;53.876;10.674;2023-04-24T17:41:36;5.88;;;3.00;;
72785;SDS011;60902;53.876;10.674;2023-04-24T17:41:47;5.40;;;3.05;;
72785;SDS011;60902;53.876;10.674;2023-04-24T17:41:59;5.40;;;3.15;;
72785;SDS011;60902;53.876;10.674;2023-04-24T17:42:11;5.38;;;3.17;;
72785;SDS011;60902;53.876;10.674;2023-04-24T17:42:22;5.15;;;3.00;;
72785;SDS011;60902;53.876;10.674;2023-04-24T17:42:33;5.45;;;2.88;;
72785;SDS011;60902;53.876;10.674;2023-04-24T17:42:46;5.60;;;2.90;;
72785;SDS011;60902;53.876;10.674;2023-04-24T17:42:56;5.75;;;2.83;;
72785;SDS011;60902;53.876;10.674;2023-04-24T17:43:07;5.43;;;2.85;;
72785;SDS011;60902;53.876;10.674;2023-04-24T17:43:19;5.53;;;3.20;;
72785;SDS011;60902;53.876;10.674;2023-04-24T17:43:31;5.67;;;3.30;;
72785;SDS011;60902;53.876;10.674;2023-04-24T17:43:42;5.72;;;3.10;;
72785;SDS011;60902;53.876;10.674;2023-04-24T17:43:54;5.90;;;2.97;;
72785;SDS011;60902;53.876;10.674;2023-04-24T17:44:05;5.80;;;2.85;;
72785;SDS011;60902;53.876;10.674;2023-04-24T17:44:16;5.85;;;2.80;;
72785;SDS011;60902;53.876;10.674;2023-04-24T17:44:27;5.80;;;2.97;;
72785;SDS011;60902;53.876;10.674;2023-04-24T17:44:39;5.82;;;3.22;;
72785;SDS011;60902;53.876;10.674;2023-04-24T17:44:50;5.88;;;3.33;;
72785;SDS011;60902;53.876;10.674;2023-04-24T17:45:00;5.72;;;3.13;;
72785;SDS011;60902;53.876;10.674;2023-04-24T17:45:13;5.13;;;2.72;;
72785;SDS011;60902;53.876;10.674;2023-04-24T17:45:24;4.80;;;2.60;;
72785;SDS011;60902;53.876;10.674;2023-04-24T17:45:35;5.10;;;2.85;;
72785;SDS011;60902;53.876;10.674;2023-04-24T17:45:47;5.40;;;2.97;;
72785;SDS011;60902;53.876;10.674;2023-04-24T17:46:00;6.28;;;2.95;;
72785;SDS011;60902;53.876;10.674;2023-04-24T17:46:11;6.30;;;2.95;;
72785;SDS011;60902;53.876;10.674;2023-04-24T17:46:22;6.18;;;3.10;;
72785;SDS011;60902;53.876;10.674;2023-04-24T17:46:33;5.93;;;3.20;;
72785;SDS011;60902;53.876;10.674;2023-04-24T17:46:44;6.10;;;3.20;;
72785;SDS011;60902;53.876;10.674;2023-04-24T17:46:55;5.78;;;3.20;;
72785;SDS011;60902;53.876;10.674;2023-04-24T17:47:07;5.90;;;3.08;;
72785;SDS011;60902;53.876;10.674;2023-04-24T17:47:18;5.65;;;3.00;;
72785;SDS011;60902;53.876;10.674;2023-04-24T17:47:32;5.13;;;2.90;;
72785;SDS011;60902;53.876;10.674;2023-04-24T17:47:43;5.20;;;2.92;;
72785;SDS011;60902;53.876;10.674;2023-04-24T17:47:54;5.32;;;3.03;;
72785;SDS011;60902;53.876;10.674;2023-04-24T17:48:07;5.18;;;2.90;;
72785;SDS011;60902;53.876;10.674;2023-04-24T17:48:18;5.47;;;2.80;;
72785;SDS011;60902;53.876;10.674;2023-04-24T17:48:29;6.10;;;2.95;;
72785;SDS011;60902;53.876;10.674;2023-04-24T17:48:40;6.72;;;3.25;;
72785;SDS011;60902;53.876;10.674;2023-04-24T17:48:50;6.53;;;3.30;;
72785;SDS011;60902;53.876;10.674;2023-04-24T17:49:01;6.28;;;3.08;;
72785;SDS011;60902;53.876;10.674;2023-04-24T17:49:15;5.43;;;2.70;;
72785;SDS011;60902;53.876;10.674;2023-04-24T17:49:26;5.10;;;2.70;;
72785;SDS011;60902;53.876;10.674;2023-04-24T17:49:36;4.97;;;2.65;;
72785;SDS011;60902;53.876;10.674;2023-04-24T17:49:48;4.82;;;2.58;;
72785;SDS011;60902;53.876;10.674;2023-04-24T17:50:00;4.80;;;2.70;;
72785;SDS011;60902;53.876;10.674;2023-04-24T17:50:11;5.22;;;2.83;;
72785;SDS011;60902;53.876;10.674;2023-04-24T17:50:23;5.80;;;2.90;;
72785;SDS011;60902;53.876;10.674;2023-04-24T17:50:34;5.95;;;3.00;;
72785;SDS011;60902;53.876;10.674;2023-04-24T17:50:45;5.70;;;2.78;;
72785;SDS011;60902;53.876;10.674;2023-04-24T17:50:56;5.30;;;2.75;;
72785;SDS011;60902;53.876;10.674;2023-04-24T17:51:07;5.25;;;2.70;;
72785;SDS011;60902;53.876;10.674;2023-04-24T17:51:18;5.20;;;2.67;;
72785;SDS011;60902;53.876;10.674;2023-04-24T17:51:29;5.22;;;2.55;;
72785;SDS011;60902;53.876;10.674;2023-04-24T17:51:41;5.22;;;2.70;;
72785;SDS011;60902;53.876;10.674;2023-04-24T17:51:52;5.28;;;2.97;;
72785;SDS011;60902;53.876;10.674;2023-04-24T17:52:03;5.60;;;3.13;;
72785;SDS011;60902;53.876;10.674;2023-04-24T17:52:14;5.38;;;2.95;;
72785;SDS011;60902;53.876;10.674;2023-04-24T17:52:26;5.88;;;2.83;;
72785;SDS011;60902;53.876;10.674;2023-04-24T17:52:37;5.70;;;3.00;;
72785;SDS011;60902;53.876;10.674;2023-04-24T17:52:48;5.88;;;3.10;;
72785;SDS011;60902;53.876;10.674;2023-04-24T17:53:01;5.90;;;3.10;;
72785;SDS011;60902;53.876;10.674;2023-04-24T17:53:11;6.05;;;3.20;;
72785;SDS011;60902;53.876;10.674;2023-04-24T17:53:22;5.43;;;2.95;;
72785;SDS011;60902;53.876;10.674;2023-04-24T17:53:33;5.27;;;2.80;;
72785;SDS011;60902;53.876;10.674;2023-04-24T17:53:44;5.65;;;2.90;;
72785;SDS011;60902;53.876;10.674;2023-04-24T17:53:55;5.93;;;2.92;;
72785;SDS011;60902;53.876;10.674;2023-04-24T17:54:07;5.72;;;2.97;;
72785;SDS011;60902;53.876;10.674;2023-04-24T17:54:18;5.35;;;2.90;;
72785;SDS011;60902;53.876;10.674;2023-04-24T17:54:29;5.35;;;2.90;;